sensor_id;sensor_type;location;lat;lon;timestamp;P1;durP1;ratioP1;P2;durP2;ratioP2
9160;SDS011;4615;51.340;8.288;2022-08-25T00:00:39;3.77;;;3.13;;
9160;SDS011;4615;51.340;8.288;2022-08-25T00:03:06;3.93;;;3.50;;
9160;SDS011;4615;51.340;8.288;2022-08-25T00:05:34;5.63;;;3.90;;
9160;SDS011;4615;51.340;8.288;2022-08-25T00:08:01;6.30;;;3.90;;
9160;SDS011;4615;51.340;8.288;2022-08-25T00:10:30;10.23;;;5.00;;
9160;SDS011;4615;51.340;8.288;2022-08-25T00:12:57;5.50;;;4.77;;
9160;SDS011;4615;51.340;8.288;2022-08-25T00:15:23;10.00;;;4.87;;
9160;SDS011;4615;51.340;8.288;2022-08-25T00:17:50;7.50;;;4.83;;
9160;SDS011;4615;51.340;8.288;2022-08-25T00:20:17;7.17;;;4.90;;
9160;SDS011;4615;51.340;8.288;2022-08-25T00:22:45;7.40;;;4.40;;
9160;SDS011;4615;51.340;8.288;2022-08-25T00:25:11;5.57;;;4.23;;
9160;SDS011;4615;51.340;8.288;2022-08-25T00:27:37;6.20;;;4.43;;
9160;SDS011;4615;51.340;8.288;2022-08-25T00:30:04;6.73;;;4.50;;
9160;SDS011;4615;51.340;8.288;2022-08-25T00:32:31;4.67;;;4.17;;
9160;SDS011;4615;51.340;8.288;2022-08-25T00:34:57;4.97;;;4.40;;
9160;SDS011;4615;51.340;8.288;2022-08-25T00:37:24;6.77;;;4.07;;
9160;SDS011;4615;51.340;8.288;2022-08-25T00:39:53;6.17;;;4.27;;
9160;SDS011;4615;51.340;8.288;2022-08-25T00:42:21;6.70;;;3.77;;
9160;SDS011;4615;51.340;8.288;2022-08-25T00:44:48;6.67;;;4.13;;
9160;SDS011;4615;51.340;8.288;2022-08-25T00:47:15;6.50;;;3.87;;
9160;SDS011;4615;51.340;8.288;2022-08-25T00:49:42;5.90;;;4.00;;
9160;SDS011;4615;51.340;8.288;2022-08-25T00:52:10;4.87;;;3.73;;
9160;SDS011;4615;51.340;8.288;2022-08-25T00:54:39;5.43;;;3.80;;
9160;SDS011;4615;51.340;8.288;2022-08-25T00:57:08;6.37;;;4.50;;
9160;SDS011;4615;51.340;8.288;2022-08-25T00:59:37;7.17;;;4.37;;
9160;SDS011;4615;51.340;8.288;2022-08-25T01:02:04;7.80;;;4.30;;
9160;SDS011;4615;51.340;8.288;2022-08-25T01:04:31;6.60;;;4.37;;
9160;SDS011;4615;51.340;8.288;2022-08-25T01:06:57;7.47;;;4.43;;
9160;SDS011;4615;51.340;8.288;2022-08-25T01:09:25;4.57;;;3.73;;
9160;SDS011;4615;51.340;8.288;2022-08-25T01:11:53;6.17;;;3.90;;
9160;SDS011;4615;51.340;8.288;2022-08-25T01:14:22;5.60;;;4.13;;
9160;SDS011;4615;51.340;8.288;2022-08-25T01:16:49;5.27;;;3.83;;
9160;SDS011;4615;51.340;8.288;2022-08-25T01:19:17;5.37;;;3.47;;
9160;SDS011;4615;51.340;8.288;2022-08-25T01:21:45;5.07;;;3.53;;
9160;SDS011;4615;51.340;8.288;2022-08-25T01:24:15;4.00;;;3.50;;
9160;SDS011;4615;51.340;8.288;2022-08-25T01:26:45;4.27;;;3.87;;
9160;SDS011;4615;51.340;8.288;2022-08-25T01:29:12;5.73;;;4.00;;
9160;SDS011;4615;51.340;8.288;2022-08-25T01:31:50;4.77;;;3.93;;
9160;SDS011;4615;51.340;8.288;2022-08-25T01:34:19;5.70;;;4.40;;
9160;SDS011;4615;51.340;8.288;2022-08-25T01:36:47;5.43;;;4.37;;
9160;SDS011;4615;51.340;8.288;2022-08-25T01:39:13;4.50;;;3.97;;
9160;SDS011;4615;51.340;8.288;2022-08-25T01:41:44;4.30;;;3.90;;
9160;SDS011;4615;51.340;8.288;2022-08-25T01:44:11;5.00;;;3.90;;
9160;SDS011;4615;51.340;8.288;2022-08-25T01:46:37;6.03;;;4.00;;
9160;SDS011;4615;51.340;8.288;2022-08-25T01:49:03;5.00;;;4.17;;
9160;SDS011;4615;51.340;8.288;2022-08-25T01:51:33;4.87;;;3.90;;
9160;SDS011;4615;51.340;8.288;2022-08-25T01:54:00;6.90;;;4.30;;
9160;SDS011;4615;51.340;8.288;2022-08-25T01:56:27;6.33;;;4.10;;
9160;SDS011;4615;51.340;8.288;2022-08-25T01:58:53;5.67;;;4.60;;
9160;SDS011;4615;51.340;8.288;2022-08-25T02:01:21;4.30;;;4.00;;
9160;SDS011;4615;51.340;8.288;2022-08-25T02:03:48;4.60;;;3.97;;
9160;SDS011;4615;51.340;8.288;2022-08-25T02:06:17;7.13;;;4.27;;
9160;SDS011;4615;51.340;8.288;2022-08-25T02:08:44;6.73;;;4.77;;
9160;SDS011;4615;51.340;8.288;2022-08-25T02:11:12;4.83;;;4.43;;
9160;SDS011;4615;51.340;8.288;2022-08-25T02:13:39;6.27;;;4.67;;
9160;SDS011;4615;51.340;8.288;2022-08-25T02:16:06;5.90;;;4.23;;
9160;SDS011;4615;51.340;8.288;2022-08-25T02:18:33;6.60;;;4.93;;
9160;SDS011;4615;51.340;8.288;2022-08-25T02:21:00;8.43;;;5.00;;
9160;SDS011;4615;51.340;8.288;2022-08-25T02:23:26;7.97;;;4.53;;
9160;SDS011;4615;51.340;8.288;2022-08-25T02:25:53;5.03;;;3.93;;
9160;SDS011;4615;51.340;8.288;2022-08-25T02:28:22;4.93;;;4.40;;
9160;SDS011;4615;51.340;8.288;2022-08-25T02:30:49;5.47;;;3.63;;
9160;SDS011;4615;51.340;8.288;2022-08-25T02:33:17;5.07;;;4.63;;
9160;SDS011;4615;51.340;8.288;2022-08-25T02:35:43;5.07;;;4.57;;
9160;SDS011;4615;51.340;8.288;2022-08-25T02:38:09;5.40;;;4.67;;
9160;SDS011;4615;51.340;8.288;2022-08-25T02:40:36;5.43;;;4.77;;
9160;SDS011;4615;51.340;8.288;2022-08-25T02:43:03;6.43;;;4.37;;
9160;SDS011;4615;51.340;8.288;2022-08-25T02:45:31;6.73;;;5.43;;
9160;SDS011;4615;51.340;8.288;2022-08-25T02:47:57;6.37;;;4.97;;
9160;SDS011;4615;51.340;8.288;2022-08-25T02:50:24;7.07;;;5.03;;
9160;SDS011;4615;51.340;8.288;2022-08-25T02:52:50;5.03;;;4.53;;
9160;SDS011;4615;51.340;8.288;2022-08-25T02:55:17;5.83;;;4.53;;
9160;SDS011;4615;51.340;8.288;2022-08-25T02:57:43;5.40;;;4.83;;
9160;SDS011;4615;51.340;8.288;2022-08-25T03:00:11;5.70;;;4.70;;
9160;SDS011;4615;51.340;8.288;2022-08-25T03:02:39;9.77;;;5.27;;
9160;SDS011;4615;51.340;8.288;2022-08-25T03:05:06;9.50;;;5.70;;
9160;SDS011;4615;51.340;8.288;2022-08-25T03:07:33;5.50;;;4.80;;
9160;SDS011;4615;51.340;8.288;2022-08-25T03:10:03;5.57;;;5.00;;
9160;SDS011;4615;51.340;8.288;2022-08-25T03:12:30;5.70;;;5.07;;
9160;SDS011;4615;51.340;8.288;2022-08-25T03:14:56;5.30;;;4.80;;
9160;SDS011;4615;51.340;8.288;2022-08-25T03:17:23;5.50;;;4.90;;
9160;SDS011;4615;51.340;8.288;2022-08-25T03:19:50;6.63;;;4.60;;
9160;SDS011;4615;51.340;8.288;2022-08-25T03:22:17;7.23;;;5.00;;
9160;SDS011;4615;51.340;8.288;2022-08-25T03:24:43;5.10;;;4.60;;
9160;SDS011;4615;51.340;8.288;2022-08-25T03:27:09;5.53;;;5.10;;
9160;SDS011;4615;51.340;8.288;2022-08-25T03:29:35;6.40;;;5.87;;
9160;SDS011;4615;51.340;8.288;2022-08-25T03:32:02;15.37;;;8.67;;
9160;SDS011;4615;51.340;8.288;2022-08-25T03:34:29;11.57;;;8.77;;
9160;SDS011;4615;51.340;8.288;2022-08-25T03:36:57;10.20;;;8.83;;
9160;SDS011;4615;51.340;8.288;2022-08-25T03:39:24;12.57;;;9.73;;
9160;SDS011;4615;51.340;8.288;2022-08-25T03:41:51;14.00;;;11.67;;
9160;SDS011;4615;51.340;8.288;2022-08-25T03:44:19;14.50;;;10.87;;
9160;SDS011;4615;51.340;8.288;2022-08-25T03:46:46;11.47;;;9.80;;
9160;SDS011;4615;51.340;8.288;2022-08-25T03:49:14;11.30;;;9.23;;
9160;SDS011;4615;51.340;8.288;2022-08-25T03:51:41;9.83;;;8.37;;
9160;SDS011;4615;51.340;8.288;2022-08-25T03:54:11;8.63;;;7.33;;
9160;SDS011;4615;51.340;8.288;2022-08-25T03:56:37;7.67;;;6.17;;
9160;SDS011;4615;51.340;8.288;2022-08-25T03:59:04;6.80;;;5.70;;
9160;SDS011;4615;51.340;8.288;2022-08-25T04:01:33;6.67;;;6.07;;
9160;SDS011;4615;51.340;8.288;2022-08-25T04:04:02;7.33;;;6.60;;
9160;SDS011;4615;51.340;8.288;2022-08-25T04:06:29;7.20;;;6.50;;
9160;SDS011;4615;51.340;8.288;2022-08-25T04:08:55;7.10;;;6.40;;
9160;SDS011;4615;51.340;8.288;2022-08-25T04:11:24;7.77;;;5.90;;
9160;SDS011;4615;51.340;8.288;2022-08-25T04:13:51;10.03;;;7.13;;
9160;SDS011;4615;51.340;8.288;2022-08-25T04:16:19;11.13;;;7.90;;
9160;SDS011;4615;51.340;8.288;2022-08-25T04:18:46;8.47;;;7.47;;
9160;SDS011;4615;51.340;8.288;2022-08-25T04:21:13;7.83;;;7.10;;
9160;SDS011;4615;51.340;8.288;2022-08-25T04:23:40;8.47;;;6.47;;
9160;SDS011;4615;51.340;8.288;2022-08-25T04:26:07;8.27;;;5.97;;
9160;SDS011;4615;51.340;8.288;2022-08-25T04:28:36;8.00;;;6.27;;
9160;SDS011;4615;51.340;8.288;2022-08-25T04:31:04;7.47;;;5.70;;
9160;SDS011;4615;51.340;8.288;2022-08-25T04:33:30;6.80;;;6.10;;
9160;SDS011;4615;51.340;8.288;2022-08-25T04:35:57;7.60;;;5.50;;
9160;SDS011;4615;51.340;8.288;2022-08-25T04:38:23;7.90;;;6.03;;
9160;SDS011;4615;51.340;8.288;2022-08-25T04:40:54;6.87;;;6.17;;
9160;SDS011;4615;51.340;8.288;2022-08-25T04:43:20;6.47;;;5.63;;
9160;SDS011;4615;51.340;8.288;2022-08-25T04:45:48;7.43;;;5.93;;
9160;SDS011;4615;51.340;8.288;2022-08-25T04:48:14;7.73;;;5.93;;
9160;SDS011;4615;51.340;8.288;2022-08-25T04:50:41;6.70;;;6.07;;
9160;SDS011;4615;51.340;8.288;2022-08-25T04:53:08;6.73;;;6.03;;
9160;SDS011;4615;51.340;8.288;2022-08-25T04:55:38;7.10;;;6.33;;
9160;SDS011;4615;51.340;8.288;2022-08-25T04:58:05;5.87;;;5.37;;
9160;SDS011;4615;51.340;8.288;2022-08-25T05:00:32;5.70;;;5.07;;
9160;SDS011;4615;51.340;8.288;2022-08-25T05:03:00;8.27;;;5.70;;
9160;SDS011;4615;51.340;8.288;2022-08-25T05:05:27;8.90;;;7.10;;
9160;SDS011;4615;51.340;8.288;2022-08-25T05:07:54;7.87;;;6.20;;
9160;SDS011;4615;51.340;8.288;2022-08-25T05:10:20;8.00;;;7.20;;
9160;SDS011;4615;51.340;8.288;2022-08-25T05:12:47;7.73;;;6.93;;
9160;SDS011;4615;51.340;8.288;2022-08-25T05:15:13;6.83;;;6.10;;
9160;SDS011;4615;51.340;8.288;2022-08-25T05:17:57;8.63;;;6.10;;
9160;SDS011;4615;51.340;8.288;2022-08-25T05:20:25;6.50;;;5.80;;
9160;SDS011;4615;51.340;8.288;2022-08-25T05:22:51;7.20;;;5.70;;
9160;SDS011;4615;51.340;8.288;2022-08-25T05:25:18;7.90;;;5.80;;
9160;SDS011;4615;51.340;8.288;2022-08-25T05:27:44;7.50;;;5.80;;
9160;SDS011;4615;51.340;8.288;2022-08-25T05:30:11;7.63;;;5.73;;
9160;SDS011;4615;51.340;8.288;2022-08-25T05:32:37;6.53;;;6.00;;
9160;SDS011;4615;51.340;8.288;2022-08-25T05:35:05;6.97;;;5.87;;
9160;SDS011;4615;51.340;8.288;2022-08-25T05:37:33;6.37;;;5.77;;
9160;SDS011;4615;51.340;8.288;2022-08-25T05:39:59;6.50;;;5.80;;
9160;SDS011;4615;51.340;8.288;2022-08-25T05:42:26;5.93;;;5.33;;
9160;SDS011;4615;51.340;8.288;2022-08-25T05:44:53;6.43;;;5.80;;
9160;SDS011;4615;51.340;8.288;2022-08-25T05:47:20;7.23;;;5.80;;
9160;SDS011;4615;51.340;8.288;2022-08-25T05:49:46;8.57;;;5.30;;
9160;SDS011;4615;51.340;8.288;2022-08-25T05:52:13;5.87;;;5.33;;
9160;SDS011;4615;51.340;8.288;2022-08-25T05:54:41;6.60;;;5.90;;
9160;SDS011;4615;51.340;8.288;2022-08-25T05:57:07;7.63;;;5.80;;
9160;SDS011;4615;51.340;8.288;2022-08-25T05:59:34;7.17;;;6.20;;
9160;SDS011;4615;51.340;8.288;2022-08-25T06:02:01;7.53;;;6.70;;
9160;SDS011;4615;51.340;8.288;2022-08-25T06:04:41;6.50;;;6.00;;
9160;SDS011;4615;51.340;8.288;2022-08-25T06:07:07;7.00;;;6.37;;
9160;SDS011;4615;51.340;8.288;2022-08-25T06:09:36;7.10;;;6.40;;
9160;SDS011;4615;51.340;8.288;2022-08-25T06:12:04;6.27;;;5.67;;
9160;SDS011;4615;51.340;8.288;2022-08-25T06:14:30;7.57;;;6.70;;
9160;SDS011;4615;51.340;8.288;2022-08-25T06:16:57;8.03;;;6.03;;
9160;SDS011;4615;51.340;8.288;2022-08-25T06:19:24;6.80;;;6.20;;
9160;SDS011;4615;51.340;8.288;2022-08-25T06:21:52;8.43;;;6.20;;
9160;SDS011;4615;51.340;8.288;2022-08-25T06:24:18;6.30;;;5.70;;
9160;SDS011;4615;51.340;8.288;2022-08-25T06:26:45;8.67;;;6.03;;
9160;SDS011;4615;51.340;8.288;2022-08-25T06:29:13;7.53;;;6.67;;
9160;SDS011;4615;51.340;8.288;2022-08-25T06:31:39;7.30;;;6.60;;
9160;SDS011;4615;51.340;8.288;2022-08-25T06:34:06;7.03;;;6.40;;
9160;SDS011;4615;51.340;8.288;2022-08-25T06:36:32;6.67;;;6.07;;
9160;SDS011;4615;51.340;8.288;2022-08-25T06:38:59;7.77;;;6.27;;
9160;SDS011;4615;51.340;8.288;2022-08-25T06:41:26;6.93;;;6.33;;
9160;SDS011;4615;51.340;8.288;2022-08-25T06:43:53;7.33;;;6.13;;
9160;SDS011;4615;51.340;8.288;2022-08-25T06:46:22;9.73;;;6.60;;
9160;SDS011;4615;51.340;8.288;2022-08-25T06:48:51;8.57;;;7.67;;
9160;SDS011;4615;51.340;8.288;2022-08-25T06:51:18;11.30;;;6.90;;
9160;SDS011;4615;51.340;8.288;2022-08-25T06:53:45;11.03;;;7.50;;
9160;SDS011;4615;51.340;8.288;2022-08-25T06:56:12;7.70;;;6.70;;
9160;SDS011;4615;51.340;8.288;2022-08-25T06:58:39;9.67;;;6.83;;
9160;SDS011;4615;51.340;8.288;2022-08-25T07:01:05;7.77;;;6.97;;
9160;SDS011;4615;51.340;8.288;2022-08-25T07:03:33;9.60;;;6.87;;
9160;SDS011;4615;51.340;8.288;2022-08-25T07:06:00;8.70;;;6.90;;
9160;SDS011;4615;51.340;8.288;2022-08-25T07:08:26;9.80;;;6.90;;
9160;SDS011;4615;51.340;8.288;2022-08-25T07:10:53;6.70;;;6.10;;
9160;SDS011;4615;51.340;8.288;2022-08-25T07:13:19;11.07;;;6.80;;
9160;SDS011;4615;51.340;8.288;2022-08-25T07:15:46;7.73;;;7.00;;
9160;SDS011;4615;51.340;8.288;2022-08-25T07:18:12;9.33;;;6.63;;
9160;SDS011;4615;51.340;8.288;2022-08-25T07:20:41;9.17;;;7.33;;
9160;SDS011;4615;51.340;8.288;2022-08-25T07:23:07;9.93;;;7.07;;
9160;SDS011;4615;51.340;8.288;2022-08-25T07:25:34;12.40;;;7.53;;
9160;SDS011;4615;51.340;8.288;2022-08-25T07:28:00;8.90;;;8.00;;
9160;SDS011;4615;51.340;8.288;2022-08-25T07:30:27;9.03;;;7.37;;
9160;SDS011;4615;51.340;8.288;2022-08-25T07:32:53;13.03;;;7.27;;
9160;SDS011;4615;51.340;8.288;2022-08-25T07:35:20;8.87;;;7.37;;
9160;SDS011;4615;51.340;8.288;2022-08-25T07:37:49;7.07;;;6.37;;
9160;SDS011;4615;51.340;8.288;2022-08-25T07:40:17;9.53;;;6.27;;
9160;SDS011;4615;51.340;8.288;2022-08-25T07:42:45;7.00;;;6.30;;
9160;SDS011;4615;51.340;8.288;2022-08-25T07:45:12;7.00;;;5.93;;
9160;SDS011;4615;51.340;8.288;2022-08-25T07:47:38;6.63;;;5.73;;
9160;SDS011;4615;51.340;8.288;2022-08-25T07:50:06;6.30;;;5.67;;
9160;SDS011;4615;51.340;8.288;2022-08-25T07:52:33;6.50;;;5.70;;
9160;SDS011;4615;51.340;8.288;2022-08-25T07:55:01;6.43;;;5.80;;
9160;SDS011;4615;51.340;8.288;2022-08-25T07:57:27;6.80;;;6.07;;
9160;SDS011;4615;51.340;8.288;2022-08-25T07:59:54;6.20;;;5.60;;
9160;SDS011;4615;51.340;8.288;2022-08-25T08:02:20;6.38;;;5.75;;
9160;SDS011;4615;51.340;8.288;2022-08-25T08:04:47;6.28;;;5.28;;
9160;SDS011;4615;51.340;8.288;2022-08-25T08:07:15;6.68;;;5.85;;
9160;SDS011;4615;51.340;8.288;2022-08-25T08:09:41;6.90;;;5.43;;
9160;SDS011;4615;51.340;8.288;2022-08-25T08:12:09;8.95;;;5.30;;
9160;SDS011;4615;51.340;8.288;2022-08-25T08:14:35;7.00;;;5.28;;
9160;SDS011;4615;51.340;8.288;2022-08-25T08:17:04;6.68;;;5.60;;
9160;SDS011;4615;51.340;8.288;2022-08-25T08:19:30;5.90;;;5.40;;
9160;SDS011;4615;51.340;8.288;2022-08-25T08:21:56;7.30;;;5.47;;
9160;SDS011;4615;51.340;8.288;2022-08-25T08:24:23;8.77;;;4.70;;
9160;SDS011;4615;51.340;8.288;2022-08-25T08:26:49;7.88;;;5.38;;
9160;SDS011;4615;51.340;8.288;2022-08-25T08:29:17;5.88;;;5.20;;
9160;SDS011;4615;51.340;8.288;2022-08-25T08:31:45;4.95;;;4.55;;
9160;SDS011;4615;51.340;8.288;2022-08-25T08:34:12;5.15;;;4.65;;
9160;SDS011;4615;51.340;8.288;2022-08-25T08:36:38;5.25;;;4.70;;
9160;SDS011;4615;51.340;8.288;2022-08-25T08:39:04;6.10;;;5.32;;
9160;SDS011;4615;51.340;8.288;2022-08-25T08:44:36;5.18;;;4.68;;
9160;SDS011;4615;51.340;8.288;2022-08-25T08:47:06;5.05;;;4.55;;
9160;SDS011;4615;51.340;8.288;2022-08-25T08:49:38;6.57;;;4.97;;
9160;SDS011;4615;51.340;8.288;2022-08-25T08:52:05;5.63;;;4.50;;
9160;SDS011;4615;51.340;8.288;2022-08-25T08:54:34;6.30;;;5.07;;
9160;SDS011;4615;51.340;8.288;2022-08-25T08:57:03;5.82;;;4.53;;
9160;SDS011;4615;51.340;8.288;2022-08-25T08:59:32;5.18;;;4.78;;
9160;SDS011;4615;51.340;8.288;2022-08-25T09:02:11;5.50;;;4.50;;
9160;SDS011;4615;51.340;8.288;2022-08-25T09:04:40;5.65;;;4.53;;
9160;SDS011;4615;51.340;8.288;2022-08-25T09:07:10;5.75;;;4.93;;
9160;SDS011;4615;51.340;8.288;2022-08-25T09:09:36;6.28;;;4.70;;
9160;SDS011;4615;51.340;8.288;2022-08-25T09:12:08;6.85;;;4.90;;
9160;SDS011;4615;51.340;8.288;2022-08-25T09:14:38;5.70;;;5.10;;
9160;SDS011;4615;51.340;8.288;2022-08-25T09:17:12;5.72;;;4.75;;
9160;SDS011;4615;51.340;8.288;2022-08-25T09:19:44;4.95;;;4.50;;
9160;SDS011;4615;51.340;8.288;2022-08-25T09:22:15;5.25;;;4.70;;
9160;SDS011;4615;51.340;8.288;2022-08-25T09:24:47;5.43;;;4.55;;
9160;SDS011;4615;51.340;8.288;2022-08-25T09:27:19;5.47;;;4.47;;
9160;SDS011;4615;51.340;8.288;2022-08-25T09:29:52;5.63;;;4.93;;
9160;SDS011;4615;51.340;8.288;2022-08-25T09:32:23;5.63;;;4.68;;
9160;SDS011;4615;51.340;8.288;2022-08-25T09:34:51;5.57;;;4.68;;
9160;SDS011;4615;51.340;8.288;2022-08-25T09:37:17;5.80;;;4.93;;
9160;SDS011;4615;51.340;8.288;2022-08-25T09:39:44;6.47;;;4.70;;
9160;SDS011;4615;51.340;8.288;2022-08-25T09:42:10;5.63;;;5.05;;
9160;SDS011;4615;51.340;8.288;2022-08-25T09:44:38;5.40;;;4.90;;
9160;SDS011;4615;51.340;8.288;2022-08-25T09:47:05;6.45;;;4.80;;
9160;SDS011;4615;51.340;8.288;2022-08-25T09:49:34;7.00;;;5.00;;
9160;SDS011;4615;51.340;8.288;2022-08-25T09:54:47;5.18;;;4.70;;
9160;SDS011;4615;51.340;8.288;2022-08-25T09:57:26;5.03;;;4.63;;
9160;SDS011;4615;51.340;8.288;2022-08-25T09:59:53;6.30;;;5.20;;
9160;SDS011;4615;51.340;8.288;2022-08-25T10:02:23;6.70;;;5.00;;
9160;SDS011;4615;51.340;8.288;2022-08-25T10:04:51;8.73;;;5.07;;
9160;SDS011;4615;51.340;8.288;2022-08-25T10:07:19;5.00;;;4.53;;
9160;SDS011;4615;51.340;8.288;2022-08-25T10:09:50;5.70;;;5.13;;
9160;SDS011;4615;51.340;8.288;2022-08-25T10:12:18;5.88;;;4.97;;
9160;SDS011;4615;51.340;8.288;2022-08-25T10:14:45;5.28;;;4.82;;
9160;SDS011;4615;51.340;8.288;2022-08-25T10:17:14;6.82;;;5.18;;
9160;SDS011;4615;51.340;8.288;2022-08-25T10:19:41;5.95;;;5.05;;
9160;SDS011;4615;51.340;8.288;2022-08-25T10:22:10;6.40;;;5.80;;
9160;SDS011;4615;51.340;8.288;2022-08-25T10:24:37;5.00;;;4.60;;
9160;SDS011;4615;51.340;8.288;2022-08-25T10:27:07;6.50;;;4.45;;
9160;SDS011;4615;51.340;8.288;2022-08-25T10:29:49;5.95;;;5.10;;
9160;SDS011;4615;51.340;8.288;2022-08-25T10:32:19;7.47;;;5.60;;
9160;SDS011;4615;51.340;8.288;2022-08-25T10:34:51;5.85;;;5.25;;
9160;SDS011;4615;51.340;8.288;2022-08-25T10:37:23;5.70;;;5.10;;
9160;SDS011;4615;51.340;8.288;2022-08-25T10:39:56;6.65;;;5.13;;
9160;SDS011;4615;51.340;8.288;2022-08-25T10:42:29;6.53;;;5.00;;
9160;SDS011;4615;51.340;8.288;2022-08-25T10:45:03;6.28;;;5.68;;
9160;SDS011;4615;51.340;8.288;2022-08-25T10:47:55;6.22;;;5.60;;
9160;SDS011;4615;51.340;8.288;2022-08-25T10:50:28;5.95;;;5.40;;
9160;SDS011;4615;51.340;8.288;2022-08-25T10:52:59;5.85;;;4.82;;
9160;SDS011;4615;51.340;8.288;2022-08-25T10:55:29;5.63;;;5.03;;
9160;SDS011;4615;51.340;8.288;2022-08-25T10:58:03;5.90;;;4.70;;
9160;SDS011;4615;51.340;8.288;2022-08-25T11:00:33;5.05;;;4.55;;
9160;SDS011;4615;51.340;8.288;2022-08-25T11:03:15;6.72;;;5.00;;
9160;SDS011;4615;51.340;8.288;2022-08-25T11:05:44;6.03;;;4.75;;
9160;SDS011;4615;51.340;8.288;2022-08-25T11:08:14;5.10;;;4.60;;
9160;SDS011;4615;51.340;8.288;2022-08-25T11:10:43;5.97;;;5.28;;
9160;SDS011;4615;51.340;8.288;2022-08-25T11:13:12;5.07;;;4.68;;
9160;SDS011;4615;51.340;8.288;2022-08-25T11:15:42;5.15;;;4.65;;
9160;SDS011;4615;51.340;8.288;2022-08-25T11:18:11;5.22;;;4.63;;
9160;SDS011;4615;51.340;8.288;2022-08-25T11:20:39;5.68;;;4.90;;
9160;SDS011;4615;51.340;8.288;2022-08-25T11:23:07;7.22;;;5.10;;
9160;SDS011;4615;51.340;8.288;2022-08-25T11:25:39;5.20;;;4.65;;
9160;SDS011;4615;51.340;8.288;2022-08-25T11:28:08;5.78;;;4.45;;
9160;SDS011;4615;51.340;8.288;2022-08-25T11:30:37;7.10;;;5.13;;
9160;SDS011;4615;51.340;8.288;2022-08-25T11:33:04;4.93;;;4.53;;
9160;SDS011;4615;51.340;8.288;2022-08-25T11:35:31;5.28;;;4.50;;
9160;SDS011;4615;51.340;8.288;2022-08-25T11:38:04;5.75;;;4.65;;
9160;SDS011;4615;51.340;8.288;2022-08-25T11:40:42;4.85;;;4.38;;
9160;SDS011;4615;51.340;8.288;2022-08-25T11:43:14;5.53;;;5.03;;
9160;SDS011;4615;51.340;8.288;2022-08-25T11:45:53;5.05;;;4.65;;
9160;SDS011;4615;51.340;8.288;2022-08-25T11:48:35;5.32;;;4.82;;
9160;SDS011;4615;51.340;8.288;2022-08-25T11:51:04;6.03;;;4.90;;
9160;SDS011;4615;51.340;8.288;2022-08-25T11:53:32;8.20;;;5.65;;
9160;SDS011;4615;51.340;8.288;2022-08-25T11:56:02;5.80;;;4.88;;
9160;SDS011;4615;51.340;8.288;2022-08-25T11:58:36;6.88;;;5.05;;
9160;SDS011;4615;51.340;8.288;2022-08-25T12:01:04;5.50;;;5.00;;
9160;SDS011;4615;51.340;8.288;2022-08-25T12:03:49;5.50;;;4.88;;
9160;SDS011;4615;51.340;8.288;2022-08-25T12:06:27;5.88;;;5.38;;
9160;SDS011;4615;51.340;8.288;2022-08-25T12:11:45;5.63;;;5.13;;
9160;SDS011;4615;51.340;8.288;2022-08-25T12:14:17;6.10;;;5.50;;
9160;SDS011;4615;51.340;8.288;2022-08-25T12:17:03;7.97;;;5.20;;
9160;SDS011;4615;51.340;8.288;2022-08-25T12:19:46;5.97;;;5.38;;
9160;SDS011;4615;51.340;8.288;2022-08-25T12:24:58;6.25;;;5.63;;
9160;SDS011;4615;51.340;8.288;2022-08-25T12:27:30;7.03;;;5.78;;
9160;SDS011;4615;51.340;8.288;2022-08-25T12:29:59;6.88;;;5.45;;
9160;SDS011;4615;51.340;8.288;2022-08-25T12:32:35;5.43;;;4.93;;
9160;SDS011;4615;51.340;8.288;2022-08-25T12:35:14;6.55;;;5.05;;
9160;SDS011;4615;51.340;8.288;2022-08-25T12:37:55;8.07;;;5.10;;
9160;SDS011;4615;51.340;8.288;2022-08-25T12:40:23;5.95;;;4.93;;
9160;SDS011;4615;51.340;8.288;2022-08-25T12:42:58;5.30;;;4.90;;
9160;SDS011;4615;51.340;8.288;2022-08-25T12:45:33;7.53;;;5.40;;
9160;SDS011;4615;51.340;8.288;2022-08-25T12:50:54;6.40;;;5.35;;
9160;SDS011;4615;51.340;8.288;2022-08-25T12:53:22;6.90;;;5.00;;
9160;SDS011;4615;51.340;8.288;2022-08-25T12:55:51;5.38;;;4.88;;
9160;SDS011;4615;51.340;8.288;2022-08-25T12:58:20;7.13;;;4.60;;
9160;SDS011;4615;51.340;8.288;2022-08-25T13:00:51;6.05;;;4.85;;
9160;SDS011;4615;51.340;8.288;2022-08-25T13:03:34;4.90;;;4.40;;
9160;SDS011;4615;51.340;8.288;2022-08-25T13:06:08;5.72;;;5.00;;
9160;SDS011;4615;51.340;8.288;2022-08-25T13:08:49;5.32;;;4.70;;
9160;SDS011;4615;51.340;8.288;2022-08-25T13:11:21;6.05;;;5.13;;
9160;SDS011;4615;51.340;8.288;2022-08-25T13:13:51;6.72;;;4.63;;
9160;SDS011;4615;51.340;8.288;2022-08-25T13:16:22;5.45;;;4.88;;
9160;SDS011;4615;51.340;8.288;2022-08-25T13:18:49;7.22;;;4.65;;
9160;SDS011;4615;51.340;8.288;2022-08-25T13:21:15;5.03;;;4.55;;
9160;SDS011;4615;51.340;8.288;2022-08-25T13:23:43;6.18;;;4.90;;
9160;SDS011;4615;51.340;8.288;2022-08-25T13:26:11;7.25;;;4.78;;
9160;SDS011;4615;51.340;8.288;2022-08-25T13:28:39;5.57;;;5.00;;
9160;SDS011;4615;51.340;8.288;2022-08-25T13:31:07;5.80;;;4.30;;
9160;SDS011;4615;51.340;8.288;2022-08-25T13:33:35;4.97;;;4.45;;
9160;SDS011;4615;51.340;8.288;2022-08-25T13:36:02;5.50;;;4.95;;
9160;SDS011;4615;51.340;8.288;2022-08-25T13:38:47;5.18;;;4.68;;
9160;SDS011;4615;51.340;8.288;2022-08-25T13:41:17;5.82;;;5.25;;
9160;SDS011;4615;51.340;8.288;2022-08-25T13:43:44;4.93;;;4.35;;
9160;SDS011;4615;51.340;8.288;2022-08-25T13:46:12;5.63;;;4.22;;
9160;SDS011;4615;51.340;8.288;2022-08-25T13:48:43;4.20;;;3.90;;
9160;SDS011;4615;51.340;8.288;2022-08-25T13:51:15;5.03;;;4.63;;
9160;SDS011;4615;51.340;8.288;2022-08-25T13:53:46;5.13;;;4.63;;
9160;SDS011;4615;51.340;8.288;2022-08-25T13:56:13;5.70;;;4.90;;
9160;SDS011;4615;51.340;8.288;2022-08-25T13:58:47;5.50;;;4.93;;
9160;SDS011;4615;51.340;8.288;2022-08-25T14:01:16;6.15;;;4.68;;
9160;SDS011;4615;51.340;8.288;2022-08-25T14:03:47;4.90;;;4.50;;
9160;SDS011;4615;51.340;8.288;2022-08-25T14:06:18;5.38;;;4.63;;
9160;SDS011;4615;51.340;8.288;2022-08-25T14:08:46;4.60;;;4.18;;
9160;SDS011;4615;51.340;8.288;2022-08-25T14:11:13;5.10;;;4.57;;
9160;SDS011;4615;51.340;8.288;2022-08-25T14:13:42;4.80;;;4.40;;
9160;SDS011;4615;51.340;8.288;2022-08-25T14:16:10;4.88;;;4.35;;
9160;SDS011;4615;51.340;8.288;2022-08-25T14:18:44;5.30;;;4.80;;
9160;SDS011;4615;51.340;8.288;2022-08-25T14:21:11;7.70;;;5.25;;
9160;SDS011;4615;51.340;8.288;2022-08-25T14:23:38;4.88;;;4.40;;
9160;SDS011;4615;51.340;8.288;2022-08-25T14:26:04;5.10;;;4.60;;
9160;SDS011;4615;51.340;8.288;2022-08-25T14:28:31;5.07;;;4.68;;
9160;SDS011;4615;51.340;8.288;2022-08-25T14:30:58;6.47;;;4.80;;
9160;SDS011;4615;51.340;8.288;2022-08-25T14:33:27;5.35;;;4.85;;
9160;SDS011;4615;51.340;8.288;2022-08-25T14:35:56;5.53;;;4.93;;
9160;SDS011;4615;51.340;8.288;2022-08-25T14:38:23;7.28;;;4.53;;
9160;SDS011;4615;51.340;8.288;2022-08-25T14:40:50;5.25;;;4.70;;
9160;SDS011;4615;51.340;8.288;2022-08-25T14:43:17;4.95;;;4.45;;
9160;SDS011;4615;51.340;8.288;2022-08-25T14:45:44;5.22;;;4.72;;
9160;SDS011;4615;51.340;8.288;2022-08-25T14:48:12;5.38;;;4.18;;
9160;SDS011;4615;51.340;8.288;2022-08-25T14:50:39;4.93;;;4.53;;
9160;SDS011;4615;51.340;8.288;2022-08-25T14:53:07;5.00;;;4.50;;
9160;SDS011;4615;51.340;8.288;2022-08-25T14:55:34;4.70;;;4.30;;
9160;SDS011;4615;51.340;8.288;2022-08-25T14:58:01;7.80;;;4.43;;
9160;SDS011;4615;51.340;8.288;2022-08-25T15:00:27;4.78;;;4.20;;
9160;SDS011;4615;51.340;8.288;2022-08-25T15:02:53;5.03;;;4.57;;
9160;SDS011;4615;51.340;8.288;2022-08-25T15:05:21;5.43;;;4.90;;
9160;SDS011;4615;51.340;8.288;2022-08-25T15:07:48;4.30;;;4.00;;
9160;SDS011;4615;51.340;8.288;2022-08-25T15:10:34;8.55;;;4.53;;
9160;SDS011;4615;51.340;8.288;2022-08-25T15:13:00;5.75;;;4.63;;
9160;SDS011;4615;51.340;8.288;2022-08-25T15:15:26;4.60;;;4.28;;
9160;SDS011;4615;51.340;8.288;2022-08-25T15:17:53;5.25;;;4.55;;
9160;SDS011;4615;51.340;8.288;2022-08-25T15:20:20;6.60;;;4.88;;
9160;SDS011;4615;51.340;8.288;2022-08-25T15:22:46;4.78;;;4.38;;
9160;SDS011;4615;51.340;8.288;2022-08-25T15:25:14;4.85;;;4.30;;
9160;SDS011;4615;51.340;8.288;2022-08-25T15:27:42;7.82;;;4.30;;
9160;SDS011;4615;51.340;8.288;2022-08-25T15:30:09;5.47;;;4.97;;
9160;SDS011;4615;51.340;8.288;2022-08-25T15:32:35;5.35;;;4.60;;
9160;SDS011;4615;51.340;8.288;2022-08-25T15:35:02;5.40;;;4.93;;
9160;SDS011;4615;51.340;8.288;2022-08-25T15:37:29;6.30;;;4.35;;